Time;durP1;ratioP1;P1;durP2;ratioP2;P2;SDS_P1;SDS_P2;PMS_P1;PMS_P2;Temp;Humidity;BMP_temperature;BMP_pressure;BME280_temperature;BME280_humidity;BME280_pressure;Samples;Min_cycle;Max_cycle;Signal;HPM_P1;HPM_P2
2023/08/31 00:00:33;;;;;;;1999.90;999.90;;;10.70;99.90;;;;;;5059243;28;20393;-69
2023/08/31 00:03:00;;;;;;;1999.90;999.90;;;10.70;99.90;;;;;;5064886;28;20076;-69
2023/08/31 00:05:28;;;;;;;1999.90;999.90;;;10.80;99.90;;;;;;5040974;28;20505;-69
2023/08/31 00:07:54;;;;;;;1999.90;999.90;;;10.70;99.90;;;;;;5041714;28;20041;-68
2023/08/31 00:10:20;;;;;;;1999.90;999.90;;;10.70;99.90;;;;;;5057896;28;20439;-69
2023/08/31 00:12:46;;;;;;;1999.90;999.90;;;10.80;99.90;;;;;;5056843;28;20041;-69
2023/08/31 00:15:11;;;;;;;1999.90;999.90;;;10.80;99.90;;;;;;5040423;28;20044;-69
2023/08/31 00:17:37;;;;;;;1999.90;999.90;;;10.80;99.90;;;;;;5040379;28;20487;-69
2023/08/31 00:20:11;;;;;;;1999.90;999.90;;;10.70;99.90;;;;;;5051278;28;20044;-68
2023/08/31 00:22:40;;;;;;;1999.90;999.90;;;10.70;99.90;;;;;;5055342;28;20855;-69
2023/08/31 00:25:08;;;;;;;1999.90;999.90;;;10.70;99.90;;;;;;5037361;28;20408;-69
2023/08/31 00:27:34;;;;;;;1999.90;999.90;;;10.70;99.90;;;;;;5053874;28;20049;-69
2023/08/31 00:30:01;;;;;;;1999.90;999.90;;;10.60;99.90;;;;;;5046000;28;20060;-69
2023/08/31 00:32:27;;;;;;;1999.90;999.90;;;10.60;99.90;;;;;;5040993;28;20452;-68
2023/08/31 00:34:52;;;;;;;1999.90;999.90;;;10.50;99.90;;;;;;5058719;28;20068;-69
2023/08/31 00:37:21;;;;;;;1999.90;999.90;;;10.50;99.90;;;;;;5047246;28;20087;-69
2023/08/31 00:39:47;;;;;;;1999.90;999.90;;;10.50;99.90;;;;;;5052033;28;20045;-69
2023/08/31 00:42:14;;;;;;;1999.90;999.90;;;10.40;99.90;;;;;;5040644;28;20393;-68
2023/08/31 00:44:39;;;;;;;1999.90;999.90;;;10.40;99.90;;;;;;5035738;28;20041;-69
2023/08/31 00:47:05;;;;;;;1999.90;999.90;;;10.40;99.90;;;;;;5035793;28;20566;-69
2023/08/31 00:49:31;;;;;;;1999.90;999.90;;;10.30;99.90;;;;;;5033413;28;20037;-69
2023/08/31 00:51:57;;;;;;;1999.90;999.90;;;10.30;99.90;;;;;;5054872;28;20116;-69
2023/08/31 00:54:23;;;;;;;1999.90;999.90;;;10.30;99.90;;;;;;5062347;28;20557;-69
2023/08/31 00:56:54;;;;;;;1999.90;999.90;;;10.20;99.90;;;;;;5040597;28;20104;-69
2023/08/31 00:59:20;;;;;;;1999.90;999.90;;;10.30;99.90;;;;;;5052227;28;20032;-69
2023/08/31 01:02:14;;;;;;;1999.90;999.90;;;10.20;99.90;;;;;;5044437;28;20042;-69
2023/08/31 01:05:00;;;;;;;1999.90;999.90;;;10.10;99.90;;;;;;5056410;28;20045;-69
2023/08/31 01:07:57;;;;;;;1999.90;999.90;;;10.00;99.90;;;;;;5052522;28;20049;-69
2023/08/31 01:10:43;;;;;;;1999.90;999.90;;;10.00;99.90;;;;;;5056357;28;20044;-69
2023/08/31 01:13:19;;;;;;;1999.90;999.90;;;9.90;99.90;;;;;;5046554;28;20037;-68
2023/08/31 01:15:49;;;;;;;1999.90;999.90;;;9.90;99.90;;;;;;5045897;28;20040;-69
2023/08/31 01:18:18;;;;;;;1999.90;999.90;;;9.80;99.90;;;;;;5059274;28;20045;-69
2023/08/31 01:20:52;;;;;;;1999.90;999.90;;;9.80;99.90;;;;;;5051906;28;20045;-69
2023/08/31 01:23:26;;;;;;;1999.90;999.90;;;9.80;99.90;;;;;;5056288;28;20650;-69
2023/08/31 01:25:52;;;;;;;1999.90;999.90;;;9.70;99.90;;;;;;5034921;28;20044;-69
2023/08/31 01:28:18;;;;;;;1999.90;999.90;;;9.70;99.90;;;;;;5049307;28;20089;-69
2023/08/31 01:30:44;;;;;;;1999.90;999.90;;;9.60;99.90;;;;;;5035246;28;20040;-69
2023/08/31 01:33:12;;;;;;;1999.90;999.90;;;9.60;99.90;;;;;;5049185;28;20044;-69
2023/08/31 01:35:45;;;;;;;1999.90;999.90;;;9.60;99.90;;;;;;5041509;28;20405;-69
2023/08/31 01:38:16;;;;;;;1999.90;999.90;;;9.50;99.90;;;;;;5055404;28;20048;-69
2023/08/31 01:40:54;;;;;;;1999.90;999.90;;;9.50;99.90;;;;;;5028072;28;20041;-70
2023/08/31 01:43:22;;;;;;;1999.90;999.90;;;9.40;99.90;;;;;;5052498;28;20044;-69
2023/08/31 01:45:48;;;;;;;1999.90;999.90;;;9.40;99.90;;;;;;5050827;28;20079;-69
2023/08/31 01:48:14;;;;;;;1999.90;999.90;;;9.40;99.90;;;;;;5056545;28;20500;-68
2023/08/31 01:50:40;;;;;;;1999.90;999.90;;;9.30;99.90;;;;;;5040209;28;20041;-68
2023/08/31 01:53:06;;;;;;;1999.90;999.90;;;9.30;99.90;;;;;;5044081;28;20040;-69
2023/08/31 01:55:33;;;;;;;1999.90;999.90;;;9.40;99.90;;;;;;5051203;28;20041;-70
2023/08/31 01:57:58;;;;;;;1999.90;999.90;;;9.50;99.90;;;;;;5041724;28;20505;-69
2023/08/31 02:00:25;;;;;;;1999.90;999.90;;;9.50;99.90;;;;;;5034427;28;20048;-69
2023/08/31 02:02:51;;;;;;;1999.90;999.90;;;9.60;99.90;;;;;;5041797;28;20128;-69
2023/08/31 02:05:17;;;;;;;1999.90;999.90;;;9.50;99.90;;;;;;5067718;28;20140;-68
2023/08/31 02:07:43;;;;;;;1999.90;999.90;;;9.60;99.90;;;;;;5050102;28;20065;-69
2023/08/31 02:10:09;;;;;;;1999.90;999.90;;;9.60;99.90;;;;;;5048762;28;20033;-68
2023/08/31 02:12:36;;;;;;;1999.90;999.90;;;9.60;99.90;;;;;;5040271;28;20052;-69
2023/08/31 02:15:06;;;;;;;1999.90;999.90;;;9.60;99.90;;;;;;5032616;28;20044;-68
2023/08/31 02:17:32;;;;;;;1999.90;999.90;;;9.60;99.90;;;;;;5067142;28;20507;-69
2023/08/31 02:19:58;;;;;;;1999.90;999.90;;;9.60;99.90;;;;;;5039737;28;20147;-69
2023/08/31 02:22:24;;;;;;;1999.90;999.90;;;9.70;99.90;;;;;;5046937;28;20076;-69
2023/08/31 02:24:50;;;;;;;1999.90;999.90;;;9.70;99.90;;;;;;5039374;28;20048;-69
2023/08/31 02:27:15;;;;;;;1999.90;999.90;;;9.70;99.90;;;;;;5046876;28;20045;-69
2023/08/31 02:29:41;;;;;;;1999.90;999.90;;;9.70;99.90;;;;;;5064462;28;20041;-69
2023/08/31 02:32:07;;;;;;;1999.90;999.90;;;9.80;99.90;;;;;;5054905;28;20044;-69
2023/08/31 02:34:33;;;;;;;1999.90;999.90;;;9.70;99.90;;;;;;5047667;28;20040;-69
2023/08/31 02:36:58;;;;;;;1999.90;999.90;;;9.70;99.90;;;;;;5067651;28;20037;-69
2023/08/31 02:39:24;;;;;;;1999.90;999.90;;;9.70;99.90;;;;;;5053500;28;20037;-68
2023/08/31 02:41:50;;;;;;;1999.90;999.90;;;9.70;99.90;;;;;;5037427;28;20037;-69
2023/08/31 02:44:15;;;;;;;1999.90;999.90;;;9.60;99.90;;;;;;5055480;28;20037;-70
2023/08/31 02:46:41;;;;;;;1999.90;999.90;;;9.60;99.90;;;;;;5048609;28;20612;-69
2023/08/31 02:49:07;;;;;;;1999.90;999.90;;;9.60;99.90;;;;;;5051490;28;20045;-68
2023/08/31 02:51:32;;;;;;;1999.90;999.90;;;9.50;99.90;;;;;;5054838;28;20107;-68
2023/08/31 02:53:58;;;;;;;1999.90;999.90;;;9.50;99.90;;;;;;5035118;28;20044;-69
2023/08/31 02:56:24;;;;;;;1999.90;999.90;;;9.50;99.90;;;;;;5042056;28;20123;-69
2023/08/31 02:58:49;;;;;;;1999.90;999.90;;;9.50;99.90;;;;;;5039645;28;20051;-69
2023/08/31 03:01:15;;;;;;;1999.90;999.90;;;9.50;99.90;;;;;;5047274;28;20049;-69
2023/08/31 03:03:42;;;;;;;1999.90;999.90;;;9.50;99.90;;;;;;5051258;28;20990;-69
2023/08/31 03:06:09;;;;;;;1999.90;999.90;;;9.50;99.90;;;;;;5044584;28;20153;-69
2023/08/31 03:08:38;;;;;;;1999.90;999.90;;;9.40;99.90;;;;;;5036663;28;20497;-69
2023/08/31 03:11:05;;;;;;;1999.90;999.90;;;9.40;99.90;;;;;;5064085;28;20072;-69
2023/08/31 03:13:34;;;;;;;1999.90;999.90;;;9.30;99.90;;;;;;5033416;28;20036;-69
2023/08/31 03:16:01;;;;;;;1999.90;999.90;;;9.30;99.90;;;;;;5041333;28;20138;-69
2023/08/31 03:18:27;;;;;;;1999.90;999.90;;;9.30;99.90;;;;;;5028604;28;20041;-69
2023/08/31 03:20:54;;;;;;;1999.90;999.90;;;9.30;99.90;;;;;;5032096;28;20088;-69
2023/08/31 03:23:19;;;;;;;1999.90;999.90;;;9.30;99.90;;;;;;5061353;28;20045;-69
2023/08/31 03:25:45;;;;;;;1999.90;999.90;;;9.40;99.90;;;;;;5032377;28;20056;-69
2023/08/31 03:28:11;;;;;;;1999.90;999.90;;;9.40;99.90;;;;;;5048593;28;20049;-69
2023/08/31 03:30:37;;;;;;;1999.90;999.90;;;9.40;99.90;;;;;;5036709;28;20099;-68
2023/08/31 03:33:02;;;;;;;1999.90;999.90;;;9.50;99.90;;;;;;5049927;28;20132;-69
2023/08/31 03:35:28;;;;;;;1999.90;999.90;;;9.60;99.90;;;;;;5064003;28;20037;-69
2023/08/31 03:37:55;;;;;;;1999.90;999.90;;;9.60;99.90;;;;;;5056078;28;20037;-69
2023/08/31 03:40:22;;;;;;;1999.90;999.90;;;9.60;99.90;;;;;;5031871;28;20059;-68
2023/08/31 03:42:49;;;;;;;1999.90;999.90;;;9.60;99.90;;;;;;5052187;28;20048;-69
2023/08/31 03:45:15;;;;;;;1999.90;999.90;;;9.70;99.90;;;;;;5056487;28;20048;-69
2023/08/31 03:47:40;;;;;;;1999.90;999.90;;;9.70;99.90;;;;;;5047949;28;20037;-69
2023/08/31 03:50:06;;;;;;;1999.90;999.90;;;9.70;99.90;;;;;;5045089;28;20037;-68
2023/08/31 03:52:32;;;;;;;1999.90;999.90;;;9.70;99.90;;;;;;5048981;28;20040;-68
2023/08/31 03:54:58;;;;;;;1999.90;999.90;;;9.80;99.90;;;;;;5046098;28;20459;-69
2023/08/31 03:57:24;;;;;;;1999.90;999.90;;;9.80;99.90;;;;;;5042910;28;20489;-68
2023/08/31 03:59:49;;;;;;;1999.90;999.90;;;9.80;99.90;;;;;;5043582;28;20504;-69
2023/08/31 04:02:15;;;;;;;1999.90;999.90;;;9.80;99.90;;;;;;5059230;28;20397;-68
2023/08/31 04:04:41;;;;;;;1999.90;999.90;;;9.90;99.90;;;;;;5051497;28;20052;-69
2023/08/31 04:07:06;;;;;;;1999.90;999.90;;;9.90;99.90;;;;;;5053089;28;20053;-69
2023/08/31 04:09:32;;;;;;;1999.90;999.90;;;10.00;99.90;;;;;;5056205;28;20068;-69
2023/08/31 04:11:58;;;;;;;1999.90;999.90;;;10.00;99.90;;;;;;5054469;28;20520;-69
2023/08/31 04:14:26;;;;;;;1999.90;999.90;;;10.00;99.90;;;;;;5055621;28;20055;-69
2023/08/31 04:16:52;;;;;;;1999.90;999.90;;;10.00;99.90;;;;;;5045227;28;20044;-69
2023/08/31 04:19:18;;;;;;;1999.90;999.90;;;9.90;99.90;;;;;;5053130;28;20041;-69
2023/08/31 04:21:43;;;;;;;1999.90;999.90;;;10.00;99.90;;;;;;5032308;28;20065;-69
2023/08/31 04:24:10;;;;;;;1999.90;999.90;;;9.90;99.90;;;;;;5020478;28;20045;-69
2023/08/31 04:26:36;;;;;;;1999.90;999.90;;;9.90;99.90;;;;;;5033221;28;20046;-69
2023/08/31 04:29:03;;;;;;;1999.90;999.90;;;9.90;99.90;;;;;;5045670;28;20090;-69
2023/08/31 04:31:29;;;;;;;1999.90;999.90;;;9.90;99.90;;;;;;5032319;28;20406;-69
2023/08/31 04:33:55;;;;;;;1999.90;999.90;;;9.80;99.90;;;;;;5060439;28;20037;-69
2023/08/31 04:36:21;;;;;;;1999.90;999.90;;;9.80;99.90;;;;;;5042571;28;20119;-69
2023/08/31 04:38:48;;;;;;;1999.90;999.90;;;9.80;99.90;;;;;;5053541;28;20630;-69
2023/08/31 04:41:14;;;;;;;1999.90;999.90;;;9.70;99.90;;;;;;5060882;28;20055;-69
2023/08/31 04:43:40;;;;;;;1999.90;999.90;;;9.70;99.90;;;;;;5060963;28;20075;-69
2023/08/31 04:46:06;;;;;;;1999.90;999.90;;;9.60;99.90;;;;;;5063643;28;20072;-69
2023/08/31 04:48:32;;;;;;;1999.90;999.90;;;9.60;99.90;;;;;;5054739;28;20111;-69
2023/08/31 04:50:58;;;;;;;1999.90;999.90;;;9.50;99.90;;;;;;5038637;28;20060;-69
2023/08/31 04:53:24;;;;;;;1999.90;999.90;;;9.50;99.90;;;;;;5047052;28;20043;-69
2023/08/31 04:55:50;;;;;;;1999.90;999.90;;;9.50;99.90;;;;;;5055380;28;20378;-69
2023/08/31 04:58:15;;;;;;;1999.90;999.90;;;9.50;99.90;;;;;;5041509;28;20041;-69
2023/08/31 05:00:41;;;;;;;1999.90;999.90;;;9.50;99.90;;;;;;5046761;28;20538;-69
2023/08/31 05:03:07;;;;;;;1999.90;999.90;;;9.50;99.90;;;;;;5059680;28;20045;-69
2023/08/31 05:05:32;;;;;;;1999.90;999.90;;;9.50;99.90;;;;;;5035903;28;20420;-69
2023/08/31 05:07:58;;;;;;;1999.90;999.90;;;9.50;99.90;;;;;;5038248;28;20472;-69
2023/08/31 05:10:24;;;;;;;1999.90;999.90;;;9.60;99.90;;;;;;5051473;28;20040;-69
2023/08/31 05:12:50;;;;;;;1999.90;999.90;;;9.70;99.90;;;;;;5038742;28;20456;-69
2023/08/31 05:15:16;;;;;;;1999.90;999.90;;;9.80;99.90;;;;;;5050392;28;20579;-69
2023/08/31 05:17:42;;;;;;;1999.90;999.90;;;9.90;99.90;;;;;;5055267;28;20128;-69
2023/08/31 05:20:09;;;;;;;1999.90;999.90;;;9.90;99.90;;;;;;5032038;28;20409;-69
2023/08/31 05:22:35;;;;;;;1999.90;999.90;;;10.00;99.90;;;;;;5049630;28;20045;-69
2023/08/31 05:25:01;;;;;;;1999.90;999.90;;;10.10;99.90;;;;;;5049591;28;20507;-69
2023/08/31 05:27:27;;;;;;;1999.90;999.90;;;10.10;99.90;;;;;;5055006;28;20466;-69
2023/08/31 05:29:52;;;;;;;1999.90;999.90;;;10.20;99.90;;;;;;5046038;28;20497;-69
2023/08/31 05:32:18;;;;;;;1999.90;999.90;;;10.30;99.90;;;;;;5039847;28;20037;-69
2023/08/31 05:34:44;;;;;;;1999.90;999.90;;;10.40;99.90;;;;;;5062153;28;20029;-69
2023/08/31 05:37:09;;;;;;;1999.90;999.90;;;10.40;99.90;;;;;;5046895;28;20033;-69
2023/08/31 05:39:35;;;;;;;1999.90;999.90;;;10.50;99.90;;;;;;5043951;28;20474;-69
2023/08/31 05:42:01;;;;;;;1999.90;999.90;;;10.60;99.90;;;;;;5038544;28;20032;-70
2023/08/31 05:44:27;;;;;;;1999.90;999.90;;;10.70;99.90;;;;;;5060561;28;20490;-69
2023/08/31 05:46:52;;;;;;;1999.90;999.90;;;10.80;99.90;;;;;;5056323;28;20029;-69
2023/08/31 05:49:18;;;;;;;1999.90;999.90;;;10.90;99.90;;;;;;5048210;28;20535;-69
2023/08/31 05:51:44;;;;;;;1999.90;999.90;;;11.00;99.90;;;;;;5053427;28;20096;-70
2023/08/31 05:54:11;;;;;;;1999.90;999.90;;;11.10;99.90;;;;;;5034399;28;20052;-69
2023/08/31 05:56:39;;;;;;;1999.90;999.90;;;11.30;99.90;;;;;;5045776;28;20048;-70
2023/08/31 05:59:05;;;;;;;1999.90;999.90;;;11.40;99.90;;;;;;5033127;28;20045;-69
2023/08/31 06:01:31;;;;;;;1999.90;999.90;;;11.50;99.90;;;;;;5037192;28;20041;-69
2023/08/31 06:03:57;;;;;;;1999.90;999.90;;;11.60;99.90;;;;;;5033800;28;20107;-69
2023/08/31 06:06:23;;;;;;;1999.90;999.90;;;11.70;99.90;;;;;;5031237;28;20057;-69
2023/08/31 06:08:49;;;;;;;1999.90;999.90;;;11.70;99.90;;;;;;5025639;28;20050;-69
2023/08/31 06:11:15;;;;;;;1999.90;999.90;;;11.80;99.90;;;;;;5054896;28;20458;-69
2023/08/31 06:13:41;;;;;;;1999.90;999.90;;;11.90;99.90;;;;;;5041283;28;20044;-69
2023/08/31 06:16:07;;;;;;;1999.90;999.90;;;11.90;99.90;;;;;;5052441;28;20044;-69
2023/08/31 06:18:32;;;;;;;1999.90;999.90;;;12.00;99.90;;;;;;5021052;28;20071;-69
2023/08/31 06:20:58;;;;;;;1999.90;999.90;;;12.10;99.90;;;;;;5038831;28;20056;-69
2023/08/31 06:23:24;;;;;;;1999.90;999.90;;;12.20;99.90;;;;;;5056619;28;20094;-69
2023/08/31 06:25:50;;;;;;;1999.90;999.90;;;12.30;99.90;;;;;;5041849;28;20041;-69
2023/08/31 06:28:16;;;;;;;1999.90;999.90;;;12.40;99.90;;;;;;5047227;28;20084;-69
2023/08/31 06:30:46;;;;;;;1999.90;999.90;;;12.40;99.90;;;;;;5051618;28;20105;-69
2023/08/31 06:33:13;;;;;;;1999.90;999.90;;;12.50;99.90;;;;;;5032621;28;20493;-69
2023/08/31 06:35:39;;;;;;;1999.90;999.90;;;12.50;99.90;;;;;;5044968;28;20049;-69
2023/08/31 06:38:04;;;;;;;1999.90;999.90;;;12.60;99.90;;;;;;5039430;28;20095;-69
2023/08/31 06:40:30;;;;;;;1999.90;999.90;;;12.60;99.90;;;;;;5027222;28;20033;-69
2023/08/31 06:42:55;;;;;;;1999.90;999.90;;;12.70;99.90;;;;;;5033778;28;20033;-69
2023/08/31 06:45:21;;;;;;;1999.90;999.90;;;12.70;99.90;;;;;;5047144;28;20036;-69
2023/08/31 06:47:47;;;;;;;1999.90;999.90;;;12.80;99.90;;;;;;5051439;28;20049;-69
2023/08/31 06:50:12;;;;;;;1999.90;999.90;;;12.90;99.90;;;;;;5067015;28;20037;-68
2023/08/31 06:52:38;;;;;;;1999.90;999.90;;;13.00;99.90;;;;;;5032294;28;20036;-69
2023/08/31 06:55:05;;;;;;;1999.90;999.90;;;13.10;99.90;;;;;;5044270;28;20036;-68
2023/08/31 06:57:31;;;;;;;1999.90;999.90;;;13.10;99.90;;;;;;5060193;28;20045;-68
2023/08/31 06:59:57;;;;;;;1999.90;999.90;;;13.20;99.90;;;;;;5053342;28;20053;-68
2023/08/31 07:02:26;;;;;;;1999.90;999.90;;;13.30;99.90;;;;;;5049115;28;20040;-68
2023/08/31 07:04:52;;;;;;;1999.90;999.90;;;13.30;99.90;;;;;;5045871;28;20059;-68
2023/08/31 07:07:18;;;;;;;1999.90;999.90;;;13.40;99.90;;;;;;5057924;28;20052;-69
2023/08/31 07:09:45;;;;;;;1999.90;999.90;;;13.50;99.90;;;;;;5034272;28;20039;-68
2023/08/31 07:12:11;;;;;;;1999.90;999.90;;;13.50;99.90;;;;;;5061606;28;20090;-69
2023/08/31 07:14:37;;;;;;;1999.90;999.90;;;13.60;99.90;;;;;;5059152;28;20040;-68
2023/08/31 07:17:03;;;;;;;1999.90;999.90;;;13.70;99.90;;;;;;5048663;28;20123;-69
2023/08/31 07:19:28;;;;;;;1999.90;999.90;;;13.80;99.90;;;;;;5046772;28;20557;-69
2023/08/31 07:21:57;;;;;;;1999.90;999.90;;;13.90;99.90;;;;;;5064773;28;20111;-68
2023/08/31 07:24:24;;;;;;;1999.90;999.90;;;14.00;99.90;;;;;;5049953;28;20051;-68
2023/08/31 07:26:50;;;;;;;1999.90;999.90;;;14.10;99.90;;;;;;5031668;28;20039;-68
2023/08/31 07:29:15;;;;;;;1999.90;999.90;;;14.20;99.90;;;;;;5037175;28;20056;-69
2023/08/31 07:31:41;;;;;;;1999.90;999.90;;;14.30;99.90;;;;;;5037113;28;20048;-69
2023/08/31 07:34:07;;;;;;;1999.90;999.90;;;14.40;99.90;;;;;;5050307;28;20068;-68
2023/08/31 07:36:33;;;;;;;1999.90;999.90;;;14.40;99.90;;;;;;5055312;28;20037;-68
2023/08/31 07:38:59;;;;;;;1999.90;999.90;;;14.50;99.90;;;;;;5068218;28;20048;-69
2023/08/31 07:41:25;;;;;;;1999.90;999.90;;;14.70;99.90;;;;;;5058165;28;20504;-68
2023/08/31 07:43:50;;;;;;;1999.90;999.90;;;14.70;99.90;;;;;;5061872;28;20052;-69
2023/08/31 07:46:17;;;;;;;1999.90;999.90;;;14.80;99.90;;;;;;5043334;28;20088;-69
2023/08/31 07:48:43;;;;;;;1999.90;999.90;;;15.00;99.90;;;;;;5053561;28;20059;-68
2023/08/31 07:51:09;;;;;;;1999.90;999.90;;;15.10;99.90;;;;;;5040274;28;20037;-68
2023/08/31 07:53:34;;;;;;;1999.90;999.90;;;15.10;99.90;;;;;;5035685;28;20068;-69
2023/08/31 07:56:00;;;;;;;1999.90;999.90;;;15.20;99.90;;;;;;5052817;28;20041;-69
2023/08/31 07:58:26;;;;;;;1999.90;999.90;;;15.30;99.90;;;;;;5060102;28;20048;-69
2023/08/31 08:00:56;;;;;;;1999.90;999.90;;;15.30;99.90;;;;;;5046591;28;20086;-69
2023/08/31 08:03:25;;;;;;;1999.90;999.90;;;15.40;99.90;;;;;;5032001;28;20075;-69
2023/08/31 08:05:51;;;;;;;1999.90;999.90;;;15.40;99.90;;;;;;5046619;28;20167;-68
2023/08/31 08:08:17;;;;;;;1999.90;999.90;;;15.50;99.90;;;;;;5051400;28;20167;-70
2023/08/31 08:10:43;;;;;;;1999.90;999.90;;;15.60;99.90;;;;;;5039970;28;20047;-69
2023/08/31 08:13:09;;;;;;;1999.90;999.90;;;15.60;99.90;;;;;;5042136;28;20120;-69
2023/08/31 08:15:35;;;;;;;1999.90;999.90;;;15.60;99.90;;;;;;5074124;28;20045;-69
2023/08/31 08:18:01;;;;;;;1999.90;999.90;;;15.70;99.90;;;;;;5051389;28;20044;-69
2023/08/31 08:20:28;;;;;;;1999.90;999.90;;;15.70;99.90;;;;;;5051688;28;20155;-69
2023/08/31 08:22:53;;;;;;;1999.90;999.90;;;15.80;99.90;;;;;;5063465;28;20130;-69
2023/08/31 08:25:19;;;;;;;1999.90;999.90;;;15.90;99.90;;;;;;5050311;28;20091;-69
2023/08/31 08:27:46;;;;;;;1999.90;999.90;;;16.20;99.90;;;;;;5067368;28;20041;-69
2023/08/31 08:30:12;;;;;;;1999.90;999.90;;;16.40;99.90;;;;;;5052696;28;20050;-69
2023/08/31 08:32:38;;;;;;;1999.90;999.90;;;16.50;99.90;;;;;;5065849;28;20029;-69
2023/08/31 08:35:04;;;;;;;1999.90;999.90;;;16.60;99.90;;;;;;5057842;28;20051;-69
2023/08/31 08:37:32;;;;;;;1999.90;999.90;;;16.60;99.90;;;;;;5040551;28;20089;-69
2023/08/31 08:39:58;;;;;;;1999.90;999.90;;;16.70;99.90;;;;;;5042494;28;20083;-69
2023/08/31 08:42:25;;;;;;;1999.90;999.90;;;16.90;99.90;;;;;;5053618;28;20489;-70
2023/08/31 08:44:51;;;;;;;622.53;367.35;;;17.10;99.90;;;;;;5064598;28;20515;-70
2023/08/31 08:47:17;;;;;;;1999.90;999.90;;;17.30;99.90;;;;;;5043982;28;20188;-70
2023/08/31 08:49:44;;;;;;;151.93;145.63;;;17.50;99.90;;;;;;5060891;28;20111;-70
2023/08/31 08:52:11;;;;;;;143.82;137.77;;;17.70;99.90;;;;;;5057605;28;20048;-70
2023/08/31 08:54:38;;;;;;;160.45;151.95;;;17.70;99.90;;;;;;5031996;28;20061;-70
2023/08/31 08:57:04;;;;;;;157.05;150.40;;;17.50;99.90;;;;;;5050010;28;20468;-69
2023/08/31 08:59:31;;;;;;;1999.90;999.90;;;17.00;99.90;;;;;;5052736;28;20371;-69
2023/08/31 09:01:57;;;;;;;1999.90;999.90;;;16.40;99.90;;;;;;5052161;28;20045;-69
2023/08/31 09:04:23;;;;;;;1999.90;999.90;;;15.80;99.90;;;;;;5060257;28;20053;-69
2023/08/31 09:06:50;;;;;;;1999.90;999.90;;;15.40;99.90;;;;;;5051727;28;20037;-69
2023/08/31 09:09:16;;;;;;;1999.90;999.90;;;15.10;99.90;;;;;;5051094;28;20051;-69
2023/08/31 09:11:42;;;;;;;1999.90;999.90;;;14.80;99.90;;;;;;5034126;28;20041;-69
2023/08/31 09:14:20;;;;;;;1999.90;999.90;;;14.70;99.90;;;;;;5064473;28;20071;-69
2023/08/31 09:16:51;;;;;;;1999.90;999.90;;;15.60;99.90;;;;;;5066361;28;20032;-69
2023/08/31 09:19:27;;;;;;;1999.90;999.90;;;16.50;99.90;;;;;;5050766;28;20049;-68
2023/08/31 09:21:55;;;;;;;1999.90;999.90;;;17.30;99.90;;;;;;5066284;28;20098;-69
2023/08/31 09:24:22;;;;;;;1999.90;999.90;;;18.00;99.90;;;;;;5039887;28;20386;-69
2023/08/31 09:26:53;;;;;;;1999.90;999.90;;;18.60;99.90;;;;;;5054732;28;20048;-70
2023/08/31 09:29:19;;;;;;;1999.90;999.90;;;18.90;99.90;;;;;;5036131;28;20049;-69
2023/08/31 09:31:46;;;;;;;1999.90;999.90;;;18.90;99.90;;;;;;5051070;28;20118;-69
2023/08/31 09:34:12;;;;;;;1999.90;999.90;;;18.70;99.90;;;;;;5065181;28;20049;-69
2023/08/31 09:36:38;;;;;;;1999.90;999.90;;;18.50;99.90;;;;;;5044110;28;20083;-72
2023/08/31 09:39:06;;;;;;;1999.90;999.90;;;18.40;99.90;;;;;;5047491;28;20162;-71
2023/08/31 09:41:34;;;;;;;1999.90;999.90;;;18.70;99.90;;;;;;5039469;28;20090;-72
2023/08/31 09:44:16;;;;;;;232.43;222.35;;;19.20;99.90;;;;;;5047151;28;20728;-72
2023/08/31 09:46:43;;;;;;;329.52;315.13;;;19.60;99.90;;;;;;5021438;28;20064;-72
2023/08/31 09:49:10;;;;;;;472.95;450.05;;;19.20;99.90;;;;;;5064112;28;20060;-71
2023/08/31 09:51:39;;;;;;;639.30;600.58;;;18.50;99.90;;;;;;5059022;28;20043;-71
2023/08/31 09:54:06;;;;;;;513.22;486.60;;;17.60;99.90;;;;;;5042894;28;20048;-71
2023/08/31 09:56:34;;;;;;;564.72;535.55;;;16.80;99.90;;;;;;5051352;28;20044;-71
2023/08/31 09:59:00;;;;;;;245.25;234.68;;;16.20;99.90;;;;;;5049696;28;20049;-71
2023/08/31 10:01:26;;;;;;;1999.90;999.90;;;15.80;99.90;;;;;;5055779;28;20108;-71
2023/08/31 10:03:52;;;;;;;1999.90;999.90;;;15.60;99.90;;;;;;5046531;28;20040;-71
2023/08/31 10:06:20;;;;;;;1999.90;999.90;;;15.60;99.90;;;;;;5053722;28;20061;-71
2023/08/31 10:08:45;;;;;;;1999.90;999.90;;;15.80;99.90;;;;;;5043787;28;20068;-71
2023/08/31 10:11:14;;;;;;;1999.90;999.90;;;15.90;99.90;;;;;;5049992;28;20444;-71
2023/08/31 10:13:42;;;;;;;1999.90;999.90;;;16.00;99.90;;;;;;5044122;28;20032;-71
2023/08/31 10:16:08;;;;;;;1999.90;999.90;;;16.10;99.90;;;;;;5048255;28;20121;-72
2023/08/31 10:18:37;;;;;;;1999.90;999.90;;;16.30;99.90;;;;;;5042415;28;20505;-71
2023/08/31 10:21:03;;;;;;;1999.90;999.90;;;16.60;99.90;;;;;;5056829;28;20044;-71
2023/08/31 10:23:29;;;;;;;1999.90;999.90;;;16.90;99.90;;;;;;5047984;28;20127;-71
2023/08/31 10:25:55;;;;;;;1999.90;999.90;;;17.20;99.90;;;;;;5046060;28;20045;-72
2023/08/31 10:28:25;;;;;;;1999.90;999.90;;;17.40;99.90;;;;;;5039774;28;20779;-72
2023/08/31 10:31:14;;;;;;;1999.90;999.90;;;17.90;99.90;;;;;;5032077;28;20036;-72
2023/08/31 10:33:45;;;;;;;1999.90;999.90;;;18.40;99.90;;;;;;5022777;28;20045;-72
2023/08/31 10:36:16;;;;;;;668.05;411.23;;;18.50;99.90;;;;;;5029052;28;20116;-72
2023/08/31 10:38:45;;;;;;;1999.90;999.90;;;18.80;99.90;;;;;;5051354;28;20354;-72
2023/08/31 10:41:11;;;;;;;173.80;166.38;;;19.30;99.90;;;;;;5027653;28;20425;-71
2023/08/31 10:43:58;;;;;;;258.40;246.95;;;19.30;99.90;;;;;;5049656;28;20037;-72
2023/08/31 10:46:28;;;;;;;150.98;144.63;;;18.90;99.90;;;;;;5060894;28;20051;-71
2023/08/31 10:49:09;;;;;;;237.60;227.50;;;18.40;99.90;;;;;;5050443;28;20398;-71
2023/08/31 10:51:36;;;;;;;237.48;227.57;;;17.80;99.90;;;;;;5048624;28;20195;-71
2023/08/31 10:54:35;;;;;;;308.98;295.42;;;17.40;99.90;;;;;;5050818;28;20119;-71
2023/08/31 10:57:08;;;;;;;300.73;287.17;;;17.40;99.90;;;;;;5045024;28;20397;-71
2023/08/31 10:59:52;;;;;;;371.02;352.88;;;17.70;99.90;;;;;;5034777;28;20037;-72
2023/08/31 11:02:40;;;;;;;202.52;193.88;;;18.10;99.90;;;;;;5043006;28;20119;-72
2023/08/31 11:05:18;;;;;;;159.23;152.73;;;18.50;99.90;;;;;;5045128;28;20061;-71
2023/08/31 11:07:49;;;;;;;226.82;217.50;;;18.90;99.90;;;;;;5031699;28;20044;-71
2023/08/31 11:10:29;;;;;;;185.23;177.57;;;19.30;99.90;;;;;;5027569;28;20053;-72
2023/08/31 11:12:57;;;;;;;174.90;167.55;;;19.80;99.90;;;;;;5047511;28;20049;-72
2023/08/31 11:15:25;;;;;;;252.25;241.57;;;20.30;99.90;;;;;;5045774;28;20048;-72
2023/08/31 11:17:52;;;;;;;292.63;279.80;;;20.90;99.90;;;;;;5044293;28;20072;-72
2023/08/31 11:20:19;;;;;;;294.25;281.52;;;21.10;99.90;;;;;;5061900;28;20395;-72
2023/08/31 11:22:49;;;;;;;277.00;265.23;;;20.80;99.90;;;;;;5046674;28;21763;-72
2023/08/31 11:25:17;;;;;;;345.95;330.35;;;20.40;99.90;;;;;;5046859;28;20053;-72
2023/08/31 11:27:53;;;;;;;359.60;343.23;;;19.80;99.90;;;;;;5051354;28;20044;-72
2023/08/31 11:30:20;;;;;;;433.25;412.23;;;19.10;99.90;;;;;;5033639;28;20044;-72
2023/08/31 11:32:47;;;;;;;444.50;422.92;;;18.80;99.90;;;;;;5064383;28;20120;-72
2023/08/31 11:35:15;;;;;;;353.08;336.85;;;18.90;99.90;;;;;;5037390;28;20074;-71
2023/08/31 11:37:42;;;;;;;330.00;314.83;;;19.30;99.90;;;;;;5042543;28;20045;-72
2023/08/31 11:40:08;;;;;;;207.98;199.23;;;19.70;99.90;;;;;;5063291;28;20049;-72
2023/08/31 11:42:34;;;;;;;249.55;238.25;;;20.10;99.90;;;;;;5041121;28;20064;-71
2023/08/31 11:45:00;;;;;;;245.30;234.38;;;20.50;99.90;;;;;;5030886;28;20088;-72
2023/08/31 11:47:26;;;;;;;334.42;318.88;;;20.90;99.90;;;;;;5046746;28;20048;-72
2023/08/31 11:49:53;;;;;;;221.13;211.82;;;21.30;99.90;;;;;;5036512;28;20439;-72
2023/08/31 11:52:19;;;;;;;239.52;229.45;;;21.40;99.90;;;;;;5050549;28;20033;-72
2023/08/31 11:54:45;;;;;;;316.55;302.40;;;20.80;99.90;;;;;;5050335;28;20036;-72
2023/08/31 11:57:11;;;;;;;422.85;402.13;;;20.10;99.90;;;;;;5056030;28;20049;-72
2023/08/31 11:59:38;;;;;;;318.70;304.58;;;19.60;99.90;;;;;;5056205;28;20041;-72
2023/08/31 12:02:08;;;;;;;290.63;278.08;;;19.00;99.90;;;;;;5053091;28;20032;-71
2023/08/31 12:04:44;;;;;;;270.65;259.02;;;18.60;99.90;;;;;;5045088;28;20049;-72